Alamo, California
Current Conditions -  °F | °C
As of 7:53 AM on Thursday 30 Oct 2014 (Local Time) from KCCR Reporting Station
Broken Clouds Broken Clouds  
Wind Chill: 12°   Ceiling: 20000
Heat Index: 12°   Visibility: 10mi
Dew Point:   Wind: 3mph
Humidity: 80%   Direction: 120°ESE
Pressure: 29.94"   Gusts: NA
Location:  37.85°N, 122.03°W
Report Text: KCCR 301453Z 12003KT 10SM BKN200 12/09 A2994 RMK AO2 SLP125 T01220089 53003
Loading
Personal Weather Stations






























Interactive Weather Map
Tropical Storm Tracking
New forecast layout! Learn more

10-Day Weather Forecast

Advertisements
Track Severe Weather on mobile